Time;durP1;ratioP1;P1;durP2;ratioP2;P2;SDS_P1;SDS_P2;PMS_P1;PMS_P2;Temp;Humidity;BMP_temperature;BMP_pressure;BME280_temperature;BME280_humidity;BME280_pressure;Samples;Min_cycle;Max_cycle;Signal;HPM_P1;HPM_P2
2021/12/29 00:01:41;;;;;;;88.55;25.52;;;6.40;99.90;;;;;;4980411;28;88220;-46
2021/12/29 00:04:07;;;;;;;278.90;42.95;;;6.40;99.90;;;;;;4980423;28;90258;-41
2021/12/29 00:06:33;;;;;;;28.05;16.23;;;6.40;99.90;;;;;;4980185;28;89669;-43
2021/12/29 00:08:59;;;;;;;67.50;21.17;;;6.40;99.90;;;;;;4981232;28;89834;-42
2021/12/29 00:11:26;;;;;;;39.65;16.55;;;6.40;99.90;;;;;;4979907;28;88209;-43
2021/12/29 00:13:52;;;;;;;49.53;18.15;;;6.40;99.90;;;;;;4981036;28;90287;-37
2021/12/29 00:16:18;;;;;;;60.03;17.92;;;6.40;99.90;;;;;;4980561;28;88862;-37
2021/12/29 00:18:44;;;;;;;104.05;24.38;;;6.40;99.90;;;;;;4979821;28;89789;-40
2021/12/29 00:21:10;;;;;;;22.05;13.40;;;6.40;99.90;;;;;;4980180;28;88332;-41
2021/12/29 00:23:36;;;;;;;82.68;20.73;;;6.40;99.90;;;;;;4980430;28;90223;-36
2021/12/29 00:26:02;;;;;;;69.38;20.05;;;6.40;99.90;;;;;;4980468;28;90137;-43
2021/12/29 00:28:28;;;;;;;37.95;16.05;;;6.50;99.90;;;;;;4980904;28;89737;-41
2021/12/29 00:30:53;;;;;;;128.18;25.75;;;6.50;99.90;;;;;;4980253;28;88458;-42
2021/12/29 00:33:19;;;;;;;20.20;13.02;;;6.40;99.90;;;;;;4980281;28;90158;-39
2021/12/29 00:35:46;;;;;;;25.25;13.18;;;6.40;99.90;;;;;;4979045;28;91713;-39
2021/12/29 00:38:11;;;;;;;54.85;17.02;;;6.50;99.90;;;;;;4979888;28;90916;-38
2021/12/29 00:40:38;;;;;;;13.70;11.07;;;6.50;99.90;;;;;;4979910;28;88422;-43
2021/12/29 00:43:08;;;;;;;26.27;13.38;;;6.40;99.90;;;;;;4961965;28;92041;-42
2021/12/29 00:45:36;;;;;;;125.20;25.40;;;6.40;99.90;;;;;;4979617;28;89643;-38
2021/12/29 00:48:05;;;;;;;82.72;17.83;;;6.40;99.90;;;;;;4979621;28;89580;-41
2021/12/29 00:50:33;;;;;;;;;;;6.40;99.90;;;;;;4980278;28;87879;-38
2021/12/29 00:52:59;;;;;;;56.30;16.30;;;6.40;99.90;;;;;;4982258;28;90669;-38
2021/12/29 00:55:25;;;;;;;22.58;11.27;;;6.40;99.90;;;;;;4979505;28;89334;-36
2021/12/29 00:57:51;;;;;;;13.38;10.07;;;6.40;99.90;;;;;;4979777;28;90437;-37
2021/12/29 01:00:21;;;;;;;105.65;18.48;;;6.40;99.90;;;;;;4980052;28;90380;-40
2021/12/29 01:02:47;;;;;;;25.58;11.50;;;6.30;99.90;;;;;;4980330;28;89897;-36
2021/12/29 01:05:14;;;;;;;31.05;9.95;;;6.40;99.90;;;;;;4979461;28;89653;-44
2021/12/29 01:07:41;;;;;;;18.63;10.82;;;6.40;99.90;;;;;;4979924;28;89259;-38
2021/12/29 01:10:08;;;;;;;13.88;9.73;;;6.40;99.90;;;;;;4979595;28;88606;-42
2021/12/29 01:12:34;;;;;;;21.08;9.90;;;6.40;99.90;;;;;;4980612;28;90379;-42
2021/12/29 01:15:01;;;;;;;14.13;7.30;;;6.40;99.90;;;;;;4980568;28;90209;-40
2021/12/29 01:17:27;;;;;;;21.60;8.77;;;6.40;99.90;;;;;;4980641;28;89604;-45
2021/12/29 01:19:54;;;;;;;18.38;10.07;;;6.40;99.90;;;;;;4980607;28;90067;-40
2021/12/29 01:22:21;;;;;;;35.65;11.18;;;6.40;99.90;;;;;;4978611;28;90196;-39
2021/12/29 01:27:45;;;;;;;9.68;7.07;;;6.30;99.90;;;;;;4978198;28;89133;-35
2021/12/29 01:30:11;;;;;;;36.80;7.88;;;6.30;99.90;;;;;;4980496;28;89579;-38
2021/12/29 01:32:38;;;;;;;20.42;8.65;;;6.30;99.90;;;;;;4979708;28;89859;-39
2021/12/29 01:35:04;;;;;;;13.40;7.47;;;6.30;99.90;;;;;;4979770;28;89599;-39
2021/12/29 01:37:30;;;;;;;31.65;8.30;;;6.30;99.90;;;;;;4980279;28;89680;-41
2021/12/29 01:39:56;;;;;;;18.70;8.18;;;6.20;99.90;;;;;;4980490;28;88103;-38
2021/12/29 01:42:21;;;;;;;120.90;15.85;;;6.20;99.90;;;;;;4979978;28;90107;-40
2021/12/29 01:44:47;;;;;;;24.27;9.07;;;6.20;99.90;;;;;;4979482;28;90780;-39
2021/12/29 01:47:32;;;;;;;24.38;9.70;;;6.20;99.90;;;;;;4980314;28;89307;-39
2021/12/29 01:50:01;;;;;;;13.88;8.90;;;6.20;99.90;;;;;;4979138;28;89567;-43
2021/12/29 01:52:32;;;;;;;22.08;10.52;;;6.30;99.90;;;;;;4980273;28;89586;-37
2021/12/29 01:54:58;;;;;;;12.65;9.85;;;6.30;99.90;;;;;;4979688;28;89909;-40
2021/12/29 01:57:24;;;;;;;17.60;10.23;;;6.30;99.90;;;;;;4979329;28;89461;-39
2021/12/29 01:59:49;;;;;;;31.77;11.68;;;6.40;99.90;;;;;;4979576;28;88837;-41
2021/12/29 02:02:16;;;;;;;32.03;12.77;;;6.40;99.90;;;;;;4979197;28;90232;-34
2021/12/29 02:04:43;;;;;;;35.70;14.18;;;6.50;99.90;;;;;;4978701;28;88889;-37
2021/12/29 02:07:09;;;;;;;31.27;11.98;;;6.50;99.90;;;;;;4979369;28;89085;-40
2021/12/29 02:09:35;;;;;;;22.92;12.50;;;6.50;99.90;;;;;;4978637;28;89409;-37
2021/12/29 02:12:02;;;;;;;42.05;14.75;;;6.50;99.90;;;;;;4979149;28;90681;-37
2021/12/29 02:14:27;;;;;;;43.80;16.35;;;6.60;99.90;;;;;;4978699;28;91018;-37
2021/12/29 02:16:53;;;;;;;40.05;16.83;;;6.60;99.90;;;;;;4978751;28;91479;-39
2021/12/29 02:19:19;;;;;;;29.77;13.02;;;6.60;99.90;;;;;;4978574;28;90149;-37
2021/12/29 02:22:01;;;;;;;57.38;17.85;;;6.60;99.90;;;;;;4979164;28;90165;-38
2021/12/29 02:24:37;;;;;;;49.00;16.95;;;6.60;99.90;;;;;;4978910;28;90270;-37
2021/12/29 02:27:05;;;;;;;55.83;16.88;;;6.60;99.90;;;;;;4978810;28;89549;-37
2021/12/29 02:29:31;;;;;;;;;;;6.60;99.90;;;;;;4979463;28;90335;-39
2021/12/29 02:31:57;;;;;;;97.20;22.40;;;6.60;99.90;;;;;;4980897;28;90771;-39
2021/12/29 02:34:22;;;;;;;69.72;19.30;;;6.60;99.90;;;;;;4978805;28;89811;-40
2021/12/29 02:36:48;;;;;;;76.20;18.80;;;6.60;99.90;;;;;;4978352;28;89481;-43
2021/12/29 02:39:20;;;;;;;57.55;15.82;;;6.60;99.90;;;;;;4978800;28;89434;-38
2021/12/29 02:41:51;;;;;;;87.13;19.20;;;6.60;99.90;;;;;;4978811;28;90222;-42
2021/12/29 02:44:24;;;;;;;119.68;23.67;;;6.70;99.90;;;;;;4978545;28;88713;-42
2021/12/29 02:46:50;;;;;;;70.43;18.48;;;6.70;99.90;;;;;;4978747;28;89863;-36
2021/12/29 02:49:16;;;;;;;30.27;12.60;;;6.60;99.90;;;;;;4978128;28;89032;-41
2021/12/29 02:51:41;;;;;;;35.83;15.50;;;6.70;99.90;;;;;;4978896;28;90404;-38
2021/12/29 02:54:07;;;;;;;39.25;15.20;;;6.70;99.90;;;;;;4978528;28;88593;-40
2021/12/29 02:56:34;;;;;;;39.50;14.07;;;6.80;99.90;;;;;;4978221;28;89548;-42
2021/12/29 02:59:00;;;;;;;35.03;13.43;;;6.80;99.90;;;;;;4978481;28;90117;-38
2021/12/29 03:01:27;;;;;;;57.10;16.17;;;6.80;99.90;;;;;;4982333;28;90344;-42
2021/12/29 03:03:55;;;;;;;59.90;14.43;;;6.80;99.90;;;;;;4984015;28;90554;-40
2021/12/29 03:06:21;;;;;;;45.53;13.40;;;6.80;99.90;;;;;;4982515;28;90601;-42
2021/12/29 03:08:47;;;;;;;122.88;19.58;;;6.70;99.90;;;;;;4981788;28;89958;-37
2021/12/29 03:11:13;;;;;;;41.95;14.20;;;6.70;99.90;;;;;;4981930;28;88839;-35
2021/12/29 03:13:39;;;;;;;37.35;13.27;;;6.70;99.90;;;;;;4981611;28;89740;-42
2021/12/29 03:16:06;;;;;;;34.75;13.65;;;6.70;99.90;;;;;;4981243;28;89106;-41
2021/12/29 03:18:32;;;;;;;30.95;12.07;;;6.80;99.90;;;;;;4981624;28;89739;-39
2021/12/29 03:20:58;;;;;;;33.13;11.45;;;6.80;99.90;;;;;;4982051;28;90055;-40
2021/12/29 03:23:23;;;;;;;50.92;13.95;;;6.80;99.90;;;;;;4981367;28;89709;-37
2021/12/29 03:25:49;;;;;;;31.13;13.18;;;6.90;99.90;;;;;;4981236;28;90248;-41
2021/12/29 03:28:21;;;;;;;59.42;16.58;;;6.90;99.90;;;;;;4980582;28;90240;-39
2021/12/29 03:30:51;;;;;;;36.25;13.05;;;6.90;99.90;;;;;;4981669;28;90366;-41
2021/12/29 03:33:18;;;;;;;34.47;14.25;;;6.90;99.90;;;;;;4981769;28;90357;-43
2021/12/29 03:35:51;;;;;;;39.28;14.45;;;6.90;99.90;;;;;;4981251;28;90352;-41
2021/12/29 03:38:20;;;;;;;55.20;15.60;;;6.90;99.90;;;;;;4965546;28;88006;-40
2021/12/29 03:40:47;;;;;;;38.67;15.68;;;6.90;99.90;;;;;;4984079;28;89635;-40
2021/12/29 03:43:14;;;;;;;52.38;16.88;;;6.90;99.90;;;;;;4983659;28;90187;-40
2021/12/29 03:45:41;;;;;;;41.22;15.02;;;6.90;99.90;;;;;;4981125;28;89724;-47
2021/12/29 03:48:09;;;;;;;50.80;18.08;;;6.90;99.90;;;;;;4981969;28;88333;-39
2021/12/29 03:50:35;;;;;;;37.93;15.73;;;7.00;99.90;;;;;;4981015;28;90416;-42
2021/12/29 03:53:02;;;;;;;50.58;16.92;;;7.00;99.90;;;;;;4980584;28;90429;-37
2021/12/29 03:55:27;;;;;;;45.38;17.85;;;7.00;99.90;;;;;;4980818;28;90613;-42
2021/12/29 03:57:53;;;;;;;42.50;17.42;;;7.00;99.90;;;;;;4980996;28;89030;-40
2021/12/29 04:00:20;;;;;;;103.30;22.85;;;7.00;99.90;;;;;;4980855;28;90520;-45
2021/12/29 04:02:47;;;;;;;38.63;16.95;;;7.00;99.90;;;;;;4981578;28;89261;-42
2021/12/29 04:05:16;;;;;;;55.58;20.20;;;7.00;99.90;;;;;;4980315;28;91278;-39
2021/12/29 04:07:41;;;;;;;36.92;17.33;;;7.00;99.90;;;;;;4980941;28;89859;-38
2021/12/29 04:10:09;;;;;;;37.42;18.48;;;7.00;99.90;;;;;;4981074;28;89568;-42
2021/12/29 04:12:36;;;;;;;39.60;19.40;;;7.10;99.90;;;;;;4980348;28;90368;-39
2021/12/29 04:15:03;;;;;;;47.22;19.65;;;7.10;99.90;;;;;;4980981;28;89681;-41
2021/12/29 04:17:36;;;;;;;54.83;19.15;;;7.10;99.90;;;;;;4979849;28;89387;-46
2021/12/29 04:22:54;;;;;;;41.60;21.77;;;7.20;99.90;;;;;;4980905;28;89430;-47
2021/12/29 04:25:24;;;;;;;38.90;20.17;;;7.20;99.90;;;;;;4980733;28;90292;-38
2021/12/29 04:27:54;;;;;;;39.10;20.48;;;7.10;99.90;;;;;;4980861;28;89205;-37
2021/12/29 04:30:21;;;;;;;50.53;21.15;;;7.10;99.90;;;;;;4962376;28;90545;-44
2021/12/29 04:32:46;;;;;;;59.50;23.15;;;7.10;99.90;;;;;;4980503;28;90736;-43
2021/12/29 04:35:12;;;;;;;41.42;19.83;;;7.10;99.90;;;;;;4980631;28;89988;-39
2021/12/29 04:37:38;;;;;;;43.67;21.88;;;7.10;99.90;;;;;;4981141;28;89951;-38
2021/12/29 04:40:05;;;;;;;41.05;20.83;;;7.10;99.90;;;;;;4979943;28;90093;-38
2021/12/29 04:42:31;;;;;;;45.45;22.73;;;7.20;99.90;;;;;;4978592;28;90555;-44
2021/12/29 04:44:57;;;;;;;66.43;22.77;;;7.20;99.90;;;;;;4980003;28;90678;-42
2021/12/29 04:47:28;;;;;;;49.78;23.17;;;7.20;99.90;;;;;;4980062;28;88781;-42
2021/12/29 04:49:54;;;;;;;45.53;23.05;;;7.20;99.90;;;;;;4980267;28;91009;-39
2021/12/29 04:52:19;;;;;;;48.13;23.17;;;7.30;99.90;;;;;;4980490;28;89579;-36
2021/12/29 04:54:45;;;;;;;40.63;21.50;;;7.30;99.90;;;;;;4980222;28;88881;-41
2021/12/29 04:57:11;;;;;;;48.88;23.73;;;7.30;99.90;;;;;;4980571;28;87936;-42
2021/12/29 04:59:36;;;;;;;81.75;27.88;;;7.30;99.90;;;;;;4963036;28;90234;-40
2021/12/29 05:02:02;;;;;;;44.42;20.83;;;7.30;99.90;;;;;;4979541;28;89666;-39
2021/12/29 05:04:35;;;;;;;77.15;26.58;;;7.30;99.90;;;;;;4979524;28;90360;-38
2021/12/29 05:09:46;;;;;;;42.30;21.15;;;7.30;99.90;;;;;;4980017;28;90450;-35
2021/12/29 05:12:12;;;;;;;37.10;21.73;;;7.30;99.90;;;;;;4979631;28;90276;-37
2021/12/29 05:14:38;;;;;;;40.47;22.10;;;7.30;99.90;;;;;;4979809;28;89527;-40
2021/12/29 05:17:05;;;;;;;76.18;23.05;;;7.30;99.90;;;;;;4980326;28;89424;-40
2021/12/29 05:19:32;;;;;;;46.25;22.00;;;7.30;99.90;;;;;;4978684;28;90196;-42
2021/12/29 05:21:58;;;;;;;36.35;20.38;;;7.30;99.90;;;;;;4979666;28;89713;-41
2021/12/29 05:24:24;;;;;;;35.85;23.40;;;7.30;99.90;;;;;;4979155;28;89745;-36
2021/12/29 05:26:49;;;;;;;45.50;23.38;;;7.30;99.90;;;;;;4961386;28;89029;-38
2021/12/29 05:29:15;;;;;;;40.08;21.83;;;7.30;99.90;;;;;;4979360;28;90656;-41
2021/12/29 05:31:41;;;;;;;36.72;21.17;;;7.30;99.90;;;;;;4978035;28;90863;-45
2021/12/29 05:34:06;;;;;;;33.80;21.95;;;7.40;99.90;;;;;;4979230;28;90931;-44
2021/12/29 05:36:32;;;;;;;36.47;22.17;;;7.40;99.90;;;;;;4979602;28;88659;-39
2021/12/29 05:38:58;;;;;;;34.17;20.98;;;7.40;99.90;;;;;;4979220;28;90213;-39
2021/12/29 05:41:24;;;;;;;38.03;21.52;;;7.30;99.90;;;;;;4979363;28;89803;-40
2021/12/29 05:43:49;;;;;;;42.25;21.30;;;7.30;99.90;;;;;;4979066;28;90640;-41
2021/12/29 05:46:16;;;;;;;43.58;21.58;;;7.30;99.90;;;;;;4979856;28;89409;-45
2021/12/29 05:48:42;;;;;;;45.17;21.63;;;7.30;99.90;;;;;;4979223;28;89391;-38
2021/12/29 05:51:07;;;;;;;32.90;19.55;;;7.30;99.90;;;;;;4979094;28;90006;-42
2021/12/29 05:53:33;;;;;;;41.22;22.45;;;7.30;99.90;;;;;;4979007;28;89716;-35
2021/12/29 05:55:59;;;;;;;42.22;21.30;;;7.30;99.90;;;;;;4978203;28;89757;-42
2021/12/29 05:58:24;;;;;;;39.70;21.67;;;7.30;99.90;;;;;;4979483;28;89911;-43
2021/12/29 06:00:50;;;;;;;40.10;20.75;;;7.30;99.90;;;;;;4979303;28;89494;-36
2021/12/29 06:03:18;;;;;;;34.60;20.65;;;7.30;99.90;;;;;;4978910;28;89559;-46
2021/12/29 06:05:43;;;;;;;37.22;22.17;;;7.30;99.90;;;;;;4979354;28;88276;-38
2021/12/29 06:08:09;;;;;;;32.88;20.02;;;7.40;99.90;;;;;;4979135;28;91930;-40
2021/12/29 06:10:35;;;;;;;39.50;20.77;;;7.40;99.90;;;;;;4979274;28;89575;-39
2021/12/29 06:13:00;;;;;;;36.22;21.23;;;7.40;99.90;;;;;;4979585;28;89703;-40
2021/12/29 06:15:26;;;;;;;31.42;20.67;;;7.40;99.90;;;;;;4978618;28;88159;-37
2021/12/29 06:17:52;;;;;;;31.70;19.90;;;7.50;99.90;;;;;;4978902;28;90166;-35
2021/12/29 06:20:17;;;;;;;38.33;20.25;;;7.50;99.90;;;;;;4978041;28;91535;-40
2021/12/29 06:22:44;;;;;;;29.90;19.38;;;7.50;99.90;;;;;;4979762;28;90623;-36
2021/12/29 06:25:12;;;;;;;30.40;20.05;;;7.40;99.90;;;;;;4978709;28;88309;-37
2021/12/29 06:27:38;;;;;;;35.05;19.77;;;7.40;99.90;;;;;;4977715;28;90030;-45
2021/12/29 06:30:06;;;;;;;28.25;20.23;;;7.50;99.90;;;;;;4978539;28;89683;-44
2021/12/29 06:32:31;;;;;;;30.77;19.00;;;7.40;99.90;;;;;;4979189;28;89521;-41
2021/12/29 06:34:57;;;;;;;43.03;20.13;;;7.40;99.90;;;;;;4979416;28;89696;-41
2021/12/29 06:37:23;;;;;;;27.35;17.05;;;7.40;99.90;;;;;;4981918;28;89075;-36
2021/12/29 06:39:49;;;;;;;36.00;20.23;;;7.40;99.90;;;;;;4981842;28;89694;-38
2021/12/29 06:42:15;;;;;;;27.83;18.75;;;7.40;99.90;;;;;;4982247;28;89937;-38
2021/12/29 06:44:42;;;;;;;36.22;22.02;;;7.40;99.90;;;;;;4981903;28;89844;-43
2021/12/29 06:47:07;;;;;;;33.60;22.23;;;7.40;99.90;;;;;;4982450;28;90551;-40
2021/12/29 06:49:33;;;;;;;37.15;22.48;;;7.40;99.90;;;;;;4981334;28;89844;-40
2021/12/29 06:52:00;;;;;;;32.90;22.15;;;7.40;99.90;;;;;;4982376;28;90191;-39
2021/12/29 06:54:25;;;;;;;36.83;21.05;;;7.40;99.90;;;;;;4981554;28;89880;-43
2021/12/29 06:56:51;;;;;;;37.83;20.45;;;7.40;99.90;;;;;;4982294;28;90507;-46
2021/12/29 06:59:17;;;;;;;35.08;21.45;;;7.30;99.90;;;;;;4981908;28;90197;-39
2021/12/29 07:01:42;;;;;;;32.92;20.42;;;7.30;99.90;;;;;;4981605;28;89329;-41
2021/12/29 07:04:08;;;;;;;34.58;20.25;;;7.30;99.90;;;;;;4982851;28;88826;-39
2021/12/29 07:06:34;;;;;;;32.05;19.60;;;7.30;99.90;;;;;;4981523;28;89465;-36
2021/12/29 07:08:59;;;;;;;34.85;19.90;;;7.30;99.90;;;;;;4981764;28;90890;-38
2021/12/29 07:11:25;;;;;;;31.42;19.02;;;7.30;99.90;;;;;;4980615;28;90846;-41
2021/12/29 07:13:51;;;;;;;36.90;17.70;;;7.30;99.90;;;;;;4981372;28;89590;-42
2021/12/29 07:16:17;;;;;;;31.92;18.08;;;7.30;99.90;;;;;;4982150;28;91767;-34
2021/12/29 07:18:43;;;;;;;23.80;16.60;;;7.30;99.90;;;;;;4981522;28;89407;-41
2021/12/29 07:21:08;;;;;;;37.75;17.85;;;7.40;99.90;;;;;;4982333;28;89767;-40
2021/12/29 07:23:34;;;;;;;29.17;15.90;;;7.40;99.90;;;;;;4981471;28;88928;-37
2021/12/29 07:26:00;;;;;;;27.20;17.02;;;7.40;99.90;;;;;;4981300;28;90889;-44
2021/12/29 07:28:25;;;;;;;26.33;16.13;;;7.30;99.90;;;;;;4980845;28;89679;-40
2021/12/29 07:30:51;;;;;;;24.33;14.85;;;7.40;99.90;;;;;;4981458;28;88972;-40
2021/12/29 07:33:16;;;;;;;25.58;16.55;;;7.30;99.90;;;;;;4981459;28;90391;-40
2021/12/29 07:35:42;;;;;;;26.05;15.57;;;7.30;99.90;;;;;;4979769;28;91286;-38
2021/12/29 07:38:08;;;;;;;39.95;17.80;;;7.30;99.90;;;;;;4981960;28;90027;-46
2021/12/29 07:40:34;;;;;;;28.30;16.10;;;7.40;99.90;;;;;;4980576;28;92089;-41
2021/12/29 07:43:01;;;;;;;24.00;14.63;;;7.40;99.90;;;;;;4981560;28;90797;-46
2021/12/29 07:45:26;;;;;;;28.40;15.90;;;7.40;99.90;;;;;;4981642;28;90118;-41
2021/12/29 07:47:52;;;;;;;29.33;16.98;;;7.40;99.90;;;;;;4980300;28;89655;-44
2021/12/29 07:50:19;;;;;;;27.52;16.73;;;7.30;99.90;;;;;;4981225;28;89950;-47
2021/12/29 07:52:48;;;;;;;30.77;15.98;;;7.40;99.90;;;;;;4981330;28;89708;-38
2021/12/29 07:55:17;;;;;;;;;;;7.40;99.90;;;;;;4981360;28;89348;-40
2021/12/29 07:57:42;;;;;;;20.77;14.40;;;7.40;99.90;;;;;;4982676;28;91637;-39
2021/12/29 08:00:08;;;;;;;28.30;16.35;;;7.40;99.90;;;;;;4980365;28;90206;-37
2021/12/29 08:02:35;;;;;;;23.45;16.73;;;7.40;99.90;;;;;;4979293;28;88941;-42
2021/12/29 08:05:03;;;;;;;30.55;17.20;;;7.40;99.90;;;;;;4980384;28;89773;-40
2021/12/29 08:07:30;;;;;;;34.63;16.42;;;7.40;99.90;;;;;;4980389;28;89773;-41
2021/12/29 08:09:56;;;;;;;27.50;15.68;;;7.30;99.90;;;;;;4913127;28;89598;-39
2021/12/29 08:12:21;;;;;;;40.20;17.88;;;7.40;99.90;;;;;;4978989;28;88113;-37
2021/12/29 08:14:48;;;;;;;29.75;15.52;;;7.40;99.90;;;;;;4980266;28;90079;-39
2021/12/29 08:17:15;;;;;;;33.33;17.13;;;7.40;99.90;;;;;;4980542;28;89586;-37
2021/12/29 08:19:41;;;;;;;41.88;17.95;;;7.40;99.90;;;;;;4980436;28;89480;-42
2021/12/29 08:22:07;;;;;;;36.40;18.42;;;7.40;99.90;;;;;;4979927;28;90239;-44
2021/12/29 08:24:32;;;;;;;48.13;19.60;;;7.40;99.90;;;;;;4980142;28;90049;-37
2021/12/29 08:26:58;;;;;;;37.35;17.38;;;7.40;99.90;;;;;;4965953;28;89728;-39
2021/12/29 08:29:24;;;;;;;41.65;18.95;;;7.40;99.90;;;;;;4960425;28;89289;-38
2021/12/29 08:31:49;;;;;;;36.55;17.13;;;7.40;99.90;;;;;;4960276;28;90172;-39
2021/12/29 08:34:15;;;;;;;37.90;17.58;;;7.50;99.90;;;;;;4960797;28;89971;-46
2021/12/29 08:36:42;;;;;;;36.15;17.35;;;7.50;99.90;;;;;;4959691;28;89506;-42
2021/12/29 08:39:07;;;;;;;44.65;18.75;;;7.50;99.90;;;;;;4960378;28;89802;-37
2021/12/29 08:41:33;;;;;;;49.55;20.02;;;7.50;99.90;;;;;;4960553;28;89230;-38
2021/12/29 08:43:59;;;;;;;49.20;19.88;;;7.50;99.90;;;;;;4959259;28;90237;-43
2021/12/29 08:46:26;;;;;;;37.53;19.52;;;7.50;99.90;;;;;;4957312;28;90758;-44
2021/12/29 08:48:52;;;;;;;60.83;20.10;;;7.50;99.90;;;;;;4958616;28;90694;-42
2021/12/29 08:51:19;;;;;;;45.33;18.02;;;7.60;99.90;;;;;;4957752;28;88367;-44
2021/12/29 08:53:45;;;;;;;58.92;20.20;;;7.50;99.90;;;;;;4958215;28;90403;-43
2021/12/29 08:56:12;;;;;;;44.10;18.83;;;7.50;99.90;;;;;;4958443;28;89796;-37
2021/12/29 08:58:37;;;;;;;50.17;19.35;;;7.60;99.90;;;;;;4958031;28;90059;-40
2021/12/29 09:01:03;;;;;;;41.63;19.38;;;7.60;99.90;;;;;;4957737;28;89840;-44
2021/12/29 09:03:29;;;;;;;43.15;18.63;;;7.60;99.90;;;;;;4956534;28;88838;-41
2021/12/29 09:05:55;;;;;;;54.15;20.15;;;7.60;99.90;;;;;;4946053;28;88661;-43
2021/12/29 09:08:20;;;;;;;42.78;19.27;;;7.60;99.90;;;;;;4938400;28;90410;-43
2021/12/29 09:10:46;;;;;;;44.47;18.48;;;7.60;99.90;;;;;;4937390;28;90168;-41
2021/12/29 09:13:13;;;;;;;50.63;19.90;;;7.60;99.90;;;;;;4937820;28;90448;-37
2021/12/29 09:15:39;;;;;;;39.17;19.67;;;7.60;99.90;;;;;;4937517;28;89302;-39
2021/12/29 09:18:05;;;;;;;37.75;19.23;;;7.70;99.90;;;;;;4937457;28;89607;-43
2021/12/29 09:20:33;;;;;;;45.38;20.15;;;7.70;99.90;;;;;;4937878;28;89170;-36
2021/12/29 09:23:04;;;;;;;45.85;19.58;;;7.70;99.90;;;;;;4951774;28;89403;-39
2021/12/29 09:25:32;;;;;;;51.65;20.05;;;7.70;99.90;;;;;;4940795;28;91298;-45
2021/12/29 09:27:57;;;;;;;38.97;19.75;;;7.70;99.90;;;;;;4977318;28;89473;-39
2021/12/29 09:30:27;;;;;;;36.03;17.95;;;7.70;99.90;;;;;;4976399;28;89064;-43
2021/12/29 09:32:54;;;;;;;39.67;20.13;;;7.70;99.90;;;;;;4974663;28;90078;-38
2021/12/29 09:35:20;;;;;;;50.20;20.20;;;7.70;99.90;;;;;;4976308;28;90469;-41
2021/12/29 09:37:47;;;;;;;49.70;17.90;;;7.70;99.90;;;;;;4976712;28;90554;-43
2021/12/29 09:40:14;;;;;;;36.63;18.27;;;7.70;99.90;;;;;;4976634;28;88777;-39
2021/12/29 09:42:41;;;;;;;36.25;19.00;;;7.70;99.90;;;;;;4976234;28;90110;-42
2021/12/29 09:45:08;;;;;;;28.80;17.80;;;7.70;99.90;;;;;;4976962;28;89896;-35
2021/12/29 09:47:35;;;;;;;48.97;19.83;;;7.80;99.90;;;;;;4976338;28;89688;-38
2021/12/29 09:50:03;;;;;;;49.92;18.55;;;7.80;99.90;;;;;;4977013;28;89804;-45
2021/12/29 09:52:33;;;;;;;;;;;7.80;99.90;;;;;;4976805;28;89316;-44
2021/12/29 09:54:59;;;;;;;33.42;16.95;;;7.80;99.90;;;;;;4979105;28;89628;-44
2021/12/29 09:57:25;;;;;;;39.08;16.23;;;7.90;99.90;;;;;;4941512;28;89706;-39
2021/12/29 09:59:50;;;;;;;43.03;16.25;;;7.90;99.90;;;;;;4976166;28;89423;-38
2021/12/29 10:02:16;;;;;;;34.28;15.43;;;7.90;99.90;;;;;;4976872;28;90727;-44
2021/12/29 10:04:45;;;;;;;28.85;15.48;;;7.90;99.90;;;;;;4975464;28;89576;-40
2021/12/29 10:07:17;;;;;;;29.02;14.43;;;7.90;99.90;;;;;;4976273;28;89832;-41
2021/12/29 10:09:42;;;;;;;28.75;13.55;;;8.00;99.90;;;;;;4957902;28;90162;-43
2021/12/29 10:12:11;;;;;;;31.48;14.82;;;7.90;99.90;;;;;;4976578;28;89295;-38
2021/12/29 10:14:36;;;;;;;;;;;8.00;99.90;;;;;;4977298;28;88335;-45
2021/12/29 10:17:10;;;;;;;17.02;11.70;;;8.00;99.90;;;;;;4977671;28;88814;-38
2021/12/29 10:19:37;;;;;;;17.92;11.15;;;8.00;99.90;;;;;;4976625;28;88872;-45
2021/12/29 10:22:03;;;;;;;18.90;12.43;;;8.00;99.90;;;;;;4958434;28;90272;-36
2021/12/29 10:24:28;;;;;;;21.83;11.75;;;8.10;99.90;;;;;;4975655;28;90929;-38
2021/12/29 10:26:56;;;;;;;18.90;11.32;;;8.10;99.90;;;;;;4975864;28;90480;-44
2021/12/29 10:29:22;;;;;;;19.00;11.20;;;8.10;99.90;;;;;;4975765;28;88701;-37
2021/12/29 10:32:06;;;;;;;17.15;9.80;;;8.10;99.90;;;;;;4974868;28;90549;-43
2021/12/29 10:34:32;;;;;;;17.73;10.90;;;8.10;99.90;;;;;;4977709;28;89887;-40
2021/12/29 10:37:02;;;;;;;21.52;10.18;;;8.10;99.90;;;;;;4976629;28;88395;-39
2021/12/29 10:39:35;;;;;;;14.25;10.48;;;8.10;99.90;;;;;;4976746;28;88885;-46
2021/12/29 10:42:09;;;;;;;16.77;10.48;;;8.10;99.90;;;;;;4976614;28;91281;-43
2021/12/29 10:44:38;;;;;;;12.45;9.13;;;8.20;99.90;;;;;;4976293;28;89993;-42
2021/12/29 10:47:16;;;;;;;12.80;9.30;;;8.20;99.90;;;;;;4976087;28;91591;-38
2021/12/29 10:49:53;;;;;;;14.00;9.52;;;8.20;99.90;;;;;;4976926;28;89258;-42
2021/12/29 10:52:33;;;;;;;11.00;8.10;;;8.20;99.90;;;;;;4977460;28;90726;-40
2021/12/29 10:55:00;;;;;;;17.25;9.20;;;8.20;99.90;;;;;;4977698;28;90243;-42
2021/12/29 10:57:25;;;;;;;15.27;9.30;;;8.20;99.90;;;;;;4977319;28;89959;-39
2021/12/29 10:59:57;;;;;;;17.30;9.65;;;8.20;99.90;;;;;;4977512;28;89084;-42
2021/12/29 11:02:27;;;;;;;17.23;10.02;;;8.20;99.90;;;;;;4976811;28;89826;-34
2021/12/29 11:04:58;;;;;;;13.82;9.90;;;8.20;99.90;;;;;;4976340;28;89895;-38
2021/12/29 11:07:32;;;;;;;15.88;10.98;;;8.20;99.90;;;;;;4977282;28;89425;-41
2021/12/29 11:10:14;;;;;;;20.27;10.45;;;8.20;99.90;;;;;;4976206;28;89140;-44
2021/12/29 11:12:48;;;;;;;13.00;9.77;;;8.20;99.90;;;;;;4976710;28;91809;-37
2021/12/29 11:15:20;;;;;;;21.13;12.82;;;8.20;99.90;;;;;;4977030;28;90814;-41
2021/12/29 11:17:46;;;;;;;22.27;11.68;;;8.20;99.90;;;;;;4975730;28;90423;-36
2021/12/29 11:20:19;;;;;;;20.90;12.07;;;8.20;99.90;;;;;;4975756;28;88063;-40
2021/12/29 11:22:44;;;;;;;21.90;12.02;;;8.20;99.90;;;;;;4977931;28;90368;-45
2021/12/29 11:25:10;;;;;;;15.85;11.35;;;8.20;99.90;;;;;;4979677;28;89499;-39
2021/12/29 11:27:36;;;;;;;20.83;12.80;;;8.20;99.90;;;;;;4979069;28;89495;-39
2021/12/29 11:30:05;;;;;;;23.17;13.07;;;8.20;99.90;;;;;;4979944;28;89655;-43
2021/12/29 11:32:41;;;;;;;20.35;13.85;;;8.20;99.90;;;;;;4978998;28;90160;-44
2021/12/29 11:35:17;;;;;;;23.88;12.93;;;8.20;99.90;;;;;;4979429;28;89666;-37
2021/12/29 11:37:54;;;;;;;22.20;14.73;;;8.20;99.90;;;;;;4971958;28;89806;-36
2021/12/29 11:40:24;;;;;;;23.03;15.20;;;8.20;99.90;;;;;;4975030;28;89265;-38
2021/12/29 11:42:50;;;;;;;27.35;15.52;;;8.30;99.90;;;;;;4993433;28;90246;-40
2021/12/29 11:45:17;;;;;;;21.77;14.65;;;8.30;99.90;;;;;;4972739;28;89901;-38
2021/12/29 11:47:43;;;;;;;23.23;15.10;;;8.30;99.90;;;;;;4972615;28;90903;-40
2021/12/29 11:50:12;;;;;;;24.52;14.80;;;8.30;99.90;;;;;;4973742;28;88176;-42
2021/12/29 11:52:59;;;;;;;18.50;14.07;;;8.40;99.90;;;;;;4984085;28;89382;-41
2021/12/29 11:55:30;;;;;;;24.37;12.00;;;8.40;99.90;;;;;;4989985;28;90099;-41
2021/12/29 11:58:14;;;;;;;19.88;11.60;;;8.50;99.90;;;;;;4973627;28;90639;-40
2021/12/29 12:00:41;;;;;;;27.00;13.60;;;8.50;99.90;;;;;;4972603;28;89933;-40
2021/12/29 12:03:12;;;;;;;22.63;14.48;;;8.50;99.90;;;;;;4972519;28;90297;-38
2021/12/29 12:05:46;;;;;;;22.55;12.82;;;8.50;99.90;;;;;;4970573;28;90404;-37
2021/12/29 12:08:23;;;;;;;25.58;12.65;;;8.50;99.90;;;;;;4972817;28;91186;-40
2021/12/29 12:10:49;;;;;;;19.88;12.18;;;8.50;99.90;;;;;;4973748;28;87921;-43
2021/12/29 12:13:26;;;;;;;24.92;12.48;;;8.60;99.90;;;;;;4972567;28;89543;-42
2021/12/29 12:16:11;;;;;;;21.17;12.30;;;8.60;99.90;;;;;;4973516;28;89970;-44
2021/12/29 12:18:45;;;;;;;23.30;12.05;;;8.60;99.90;;;;;;4973070;28;90143;-44
2021/12/29 12:21:28;;;;;;;23.88;12.02;;;8.60;99.90;;;;;;4972587;28;90385;-46
2021/12/29 12:23:54;;;;;;;21.25;12.15;;;8.60;99.90;;;;;;4989194;28;90785;-40
2021/12/29 12:26:22;;;;;;;23.88;11.90;;;8.60;99.90;;;;;;4964831;28;90241;-39
2021/12/29 12:28:50;;;;;;;;;;;8.60;99.90;;;;;;4934673;28;91852;-41
2021/12/29 12:31:23;;;;;;;38.85;13.38;;;8.60;99.90;;;;;;4931729;28;88710;-38
2021/12/29 12:33:50;;;;;;;27.60;13.05;;;8.60;99.90;;;;;;4932808;28;91667;-39
2021/12/29 12:36:44;;;;;;;25.40;11.23;;;8.60;99.90;;;;;;4942604;28;91459;-37
2021/12/29 13:17:36;;;;;;;23.65;13.43;;;8.70;99.90;;;;;;4932712;28;87448;-38
2021/12/29 13:23:29;;;;;;;29.95;14.73;;;8.70;99.90;;;;;;4915750;28;89728;-43
2021/12/29 13:28:29;;;;;;;38.63;16.58;;;8.70;99.90;;;;;;4973501;28;90025;-44
2021/12/29 13:31:05;;;;;;;31.52;15.38;;;8.70;99.90;;;;;;4971894;28;89740;-43
2021/12/29 13:33:36;;;;;;;24.02;15.10;;;8.70;99.90;;;;;;4971618;28;89316;-39